Pagrindinis puslapis
METAR-TAF:

METAR-TAF

Oro uostai :

Whale Cove, Nunavutas, Kanada

platuma: 62-14N, ilguma: 092-36W, Aukštis: 20 m

Dabartinis oras

Ataskaita buvo paskelbta 29 minutes, ne 19:42 UTC
Vėjas 6 kt iš Šiaurės/Šiaurės Vakarų
Temperatūra -25°C
Drėgmė 83%
Slėgis 1008 hPa
Matomumas: 6.4 km
Mažai debesys ne aukštis 1000 ft
rūkana

METAR: CYXN 201942Z 33006KT 4SM BR FEW010 M25/M27 A2976 RMK SC1 SC TR VIS S-W 1/2 SLP082

Laikas: 14:11 (20:11 UTC)


TAF: trūkstamas

Orai ataskaitas ir orų prognozės (METAR, TAF).

turimą stotys yra geltonos ir raudonos taškus žemėlapyje.

Perkelti pele per norėdami pamatyti stoties vardą.

Tada spustelėkite, norėdami matyti oro stebėjimo ir prognozės.

Norėdami pakeisti žemėlapį: spustelėkite ant žalios mygtukų su juodo kryžiaus žemyn,; žalią mygtuką su brūkšneliu, jei norite nutolinti; arba žalių rodyklių gretimoms žemėlapius.


METAR-TAF: